sensor_id;sensor_type;location;lat;lon;timestamp;P1;durP1;ratioP1;P2;durP2;ratioP2
26838;SDS011;40088;51.214;6.786;2023-02-13T00:08:06;5.85;;;4.93;;
26838;SDS011;40088;51.214;6.786;2023-02-13T00:18:06;6.05;;;5.05;;
26838;SDS011;40088;51.214;6.786;2023-02-13T00:28:06;5.88;;;4.88;;
26838;SDS011;40088;51.214;6.786;2023-02-13T00:38:07;5.80;;;5.20;;
26838;SDS011;40088;51.214;6.786;2023-02-13T00:48:07;6.47;;;5.15;;
26838;SDS011;40088;51.214;6.786;2023-02-13T00:58:07;5.32;;;4.70;;
26838;SDS011;40088;51.214;6.786;2023-02-13T01:08:08;5.68;;;4.72;;
26838;SDS011;40088;51.214;6.786;2023-02-13T01:18:11;5.82;;;4.75;;
26838;SDS011;40088;51.214;6.786;2023-02-13T01:28:13;5.63;;;4.88;;
26838;SDS011;40088;51.214;6.786;2023-02-13T01:38:13;5.45;;;4.60;;
26838;SDS011;40088;51.214;6.786;2023-02-13T01:48:17;5.00;;;4.30;;
26838;SDS011;40088;51.214;6.786;2023-02-13T01:58:21;5.90;;;4.97;;
26838;SDS011;40088;51.214;6.786;2023-02-13T02:08:24;4.90;;;4.30;;
26838;SDS011;40088;51.214;6.786;2023-02-13T02:18:25;5.72;;;4.80;;
26838;SDS011;40088;51.214;6.786;2023-02-13T02:49:41;4.95;;;4.35;;
26838;SDS011;40088;51.214;6.786;2023-02-13T03:00:00;4.85;;;4.35;;
26838;SDS011;40088;51.214;6.786;2023-02-13T03:10:23;5.43;;;4.68;;
26838;SDS011;40088;51.214;6.786;2023-02-13T03:20:54;4.95;;;4.00;;
26838;SDS011;40088;51.214;6.786;2023-02-13T03:31:34;4.97;;;4.47;;
26838;SDS011;40088;51.214;6.786;2023-02-13T03:41:44;4.43;;;3.92;;
26838;SDS011;40088;51.214;6.786;2023-02-13T03:51:49;5.20;;;4.60;;
26838;SDS011;40088;51.214;6.786;2023-02-13T04:01:59;6.00;;;4.60;;
26838;SDS011;40088;51.214;6.786;2023-02-13T04:12:08;5.43;;;4.50;;
26838;SDS011;40088;51.214;6.786;2023-02-13T04:22:15;4.95;;;4.20;;
26838;SDS011;40088;51.214;6.786;2023-02-13T04:32:16;5.07;;;4.20;;
26838;SDS011;40088;51.214;6.786;2023-02-13T04:42:16;5.40;;;4.38;;
26838;SDS011;40088;51.214;6.786;2023-02-13T04:52:16;5.32;;;4.47;;
26838;SDS011;40088;51.214;6.786;2023-02-13T05:02:17;4.68;;;4.00;;
26838;SDS011;40088;51.214;6.786;2023-02-13T05:12:17;4.45;;;3.92;;
26838;SDS011;40088;51.214;6.786;2023-02-13T05:22:17;4.40;;;4.00;;
26838;SDS011;40088;51.214;6.786;2023-02-13T05:32:36;5.25;;;4.45;;
26838;SDS011;40088;51.214;6.786;2023-02-13T05:42:36;4.78;;;3.80;;
26838;SDS011;40088;51.214;6.786;2023-02-13T05:52:36;4.43;;;4.03;;
26838;SDS011;40088;51.214;6.786;2023-02-13T06:02:37;4.15;;;3.75;;
26838;SDS011;40088;51.214;6.786;2023-02-13T06:12:37;5.40;;;4.72;;
26838;SDS011;40088;51.214;6.786;2023-02-13T06:22:37;5.38;;;4.40;;
26838;SDS011;40088;51.214;6.786;2023-02-13T06:32:38;5.05;;;4.50;;
26838;SDS011;40088;51.214;6.786;2023-02-13T06:42:38;5.33;;;4.30;;
26838;SDS011;40088;51.214;6.786;2023-02-13T06:52:50;4.82;;;4.20;;
26838;SDS011;40088;51.214;6.786;2023-02-13T07:02:50;4.97;;;3.90;;
26838;SDS011;40088;51.214;6.786;2023-02-13T07:12:51;4.10;;;3.70;;
26838;SDS011;40088;51.214;6.786;2023-02-13T07:22:51;4.50;;;4.10;;
26838;SDS011;40088;51.214;6.786;2023-02-13T07:32:51;5.00;;;4.00;;
26838;SDS011;40088;51.214;6.786;2023-02-13T07:42:51;4.32;;;3.92;;
26838;SDS011;40088;51.214;6.786;2023-02-13T07:52:53;5.18;;;4.40;;
26838;SDS011;40088;51.214;6.786;2023-02-13T08:03:00;4.55;;;4.07;;
26838;SDS011;40088;51.214;6.786;2023-02-13T08:13:00;4.60;;;4.10;;
26838;SDS011;40088;51.214;6.786;2023-02-13T08:23:02;6.17;;;3.97;;
26838;SDS011;40088;51.214;6.786;2023-02-13T08:33:06;4.32;;;3.92;;
26838;SDS011;40088;51.214;6.786;2023-02-13T08:43:06;4.47;;;3.80;;
26838;SDS011;40088;51.214;6.786;2023-02-13T08:53:07;4.93;;;4.30;;
26838;SDS011;40088;51.214;6.786;2023-02-13T09:03:07;4.03;;;3.63;;
26838;SDS011;40088;51.214;6.786;2023-02-13T09:13:08;5.63;;;3.55;;
26838;SDS011;40088;51.214;6.786;2023-02-13T09:23:08;4.28;;;3.88;;
26838;SDS011;40088;51.214;6.786;2023-02-13T09:33:09;4.15;;;3.70;;
26838;SDS011;40088;51.214;6.786;2023-02-13T09:43:30;4.20;;;3.65;;
26838;SDS011;40088;51.214;6.786;2023-02-13T09:53:32;4.00;;;3.47;;
26838;SDS011;40088;51.214;6.786;2023-02-13T10:03:38;4.22;;;3.72;;
26838;SDS011;40088;51.214;6.786;2023-02-13T10:13:49;4.45;;;3.83;;
26838;SDS011;40088;51.214;6.786;2023-02-13T10:24:17;4.43;;;3.90;;
26838;SDS011;40088;51.214;6.786;2023-02-13T10:34:27;4.17;;;3.77;;
26838;SDS011;40088;51.214;6.786;2023-02-13T10:44:37;4.55;;;3.35;;
26838;SDS011;40088;51.214;6.786;2023-02-13T11:25:27;4.35;;;3.58;;
26838;SDS011;40088;51.214;6.786;2023-02-13T11:35:32;3.60;;;3.28;;
26838;SDS011;40088;51.214;6.786;2023-02-13T11:45:34;3.93;;;3.33;;
26838;SDS011;40088;51.214;6.786;2023-02-13T11:55:35;5.47;;;3.83;;
26838;SDS011;40088;51.214;6.786;2023-02-13T12:05:37;4.72;;;4.03;;
26838;SDS011;40088;51.214;6.786;2023-02-13T12:15:38;3.78;;;3.22;;
26838;SDS011;40088;51.214;6.786;2023-02-13T12:25:47;4.20;;;3.28;;
26838;SDS011;40088;51.214;6.786;2023-02-13T12:36:10;3.60;;;3.13;;
26838;SDS011;40088;51.214;6.786;2023-02-13T12:46:36;4.05;;;3.20;;
26838;SDS011;40088;51.214;6.786;2023-02-13T12:57:08;3.90;;;3.50;;
26838;SDS011;40088;51.214;6.786;2023-02-13T13:07:39;3.70;;;3.40;;
26838;SDS011;40088;51.214;6.786;2023-02-13T13:27:46;4.77;;;3.93;;
26838;SDS011;40088;51.214;6.786;2023-02-13T13:37:52;3.55;;;3.20;;
26838;SDS011;40088;51.214;6.786;2023-02-13T13:58:17;4.07;;;2.93;;
26838;SDS011;40088;51.214;6.786;2023-02-13T14:18:43;3.40;;;3.10;;
26838;SDS011;40088;51.214;6.786;2023-02-13T14:38:55;4.38;;;3.30;;
26838;SDS011;40088;51.214;6.786;2023-02-13T14:49:00;5.43;;;3.00;;
26838;SDS011;40088;51.214;6.786;2023-02-13T15:09:26;4.05;;;2.85;;
26838;SDS011;40088;51.214;6.786;2023-02-13T15:19:41;3.25;;;2.85;;
26838;SDS011;40088;51.214;6.786;2023-02-13T15:29:54;3.60;;;3.00;;
26838;SDS011;40088;51.214;6.786;2023-02-13T15:40:11;3.17;;;2.88;;
26838;SDS011;40088;51.214;6.786;2023-02-13T15:50:30;4.25;;;3.00;;
26838;SDS011;40088;51.214;6.786;2023-02-13T16:00:35;4.95;;;3.03;;
26838;SDS011;40088;51.214;6.786;2023-02-13T16:10:38;5.43;;;3.08;;
26838;SDS011;40088;51.214;6.786;2023-02-13T16:20:40;3.97;;;3.08;;
26838;SDS011;40088;51.214;6.786;2023-02-13T16:30:42;3.90;;;3.17;;
26838;SDS011;40088;51.214;6.786;2023-02-13T16:40:43;4.87;;;3.20;;
26838;SDS011;40088;51.214;6.786;2023-02-13T16:50:44;5.20;;;2.95;;
26838;SDS011;40088;51.214;6.786;2023-02-13T17:00:48;4.28;;;2.92;;
26838;SDS011;40088;51.214;6.786;2023-02-13T17:10:59;3.65;;;2.72;;
26838;SDS011;40088;51.214;6.786;2023-02-13T17:21:02;3.87;;;2.83;;
26838;SDS011;40088;51.214;6.786;2023-02-13T17:31:04;4.35;;;2.70;;
26838;SDS011;40088;51.214;6.786;2023-02-13T17:41:21;3.55;;;2.63;;
26838;SDS011;40088;51.214;6.786;2023-02-13T17:51:22;3.25;;;2.92;;
26838;SDS011;40088;51.214;6.786;2023-02-13T18:01:22;4.35;;;2.90;;
26838;SDS011;40088;51.214;6.786;2023-02-13T18:11:22;5.22;;;3.20;;
26838;SDS011;40088;51.214;6.786;2023-02-13T18:21:22;4.18;;;2.90;;
26838;SDS011;40088;51.214;6.786;2023-02-13T18:31:23;5.10;;;3.75;;
26838;SDS011;40088;51.214;6.786;2023-02-13T18:41:23;5.18;;;3.38;;
26838;SDS011;40088;51.214;6.786;2023-02-13T18:51:23;5.03;;;3.85;;
26838;SDS011;40088;51.214;6.786;2023-02-13T19:01:24;4.90;;;3.67;;
26838;SDS011;40088;51.214;6.786;2023-02-13T19:11:25;4.80;;;3.73;;
26838;SDS011;40088;51.214;6.786;2023-02-13T19:21:26;4.13;;;3.30;;
26838;SDS011;40088;51.214;6.786;2023-02-13T19:41:30;4.75;;;3.70;;
26838;SDS011;40088;51.214;6.786;2023-02-13T19:51:32;3.13;;;2.83;;
26838;SDS011;40088;51.214;6.786;2023-02-13T20:01:33;4.13;;;3.33;;
26838;SDS011;40088;51.214;6.786;2023-02-13T20:11:34;5.18;;;3.58;;
26838;SDS011;40088;51.214;6.786;2023-02-13T20:21:35;3.88;;;3.22;;
26838;SDS011;40088;51.214;6.786;2023-02-13T20:31:36;4.07;;;3.42;;
26838;SDS011;40088;51.214;6.786;2023-02-13T20:51:40;9.52;;;3.90;;
26838;SDS011;40088;51.214;6.786;2023-02-13T21:01:43;4.30;;;3.78;;
26838;SDS011;40088;51.214;6.786;2023-02-13T21:11:44;3.97;;;3.35;;
26838;SDS011;40088;51.214;6.786;2023-02-13T21:21:44;4.47;;;3.70;;
26838;SDS011;40088;51.214;6.786;2023-02-13T21:31:45;3.75;;;3.17;;
26838;SDS011;40088;51.214;6.786;2023-02-13T21:41:46;5.15;;;3.65;;
26838;SDS011;40088;51.214;6.786;2023-02-13T21:51:47;4.45;;;3.53;;
26838;SDS011;40088;51.214;6.786;2023-02-13T22:01:48;5.90;;;4.00;;
26838;SDS011;40088;51.214;6.786;2023-02-13T22:11:52;5.82;;;4.43;;
26838;SDS011;40088;51.214;6.786;2023-02-13T22:21:55;4.70;;;4.07;;
26838;SDS011;40088;51.214;6.786;2023-02-13T22:31:59;5.13;;;4.20;;
26838;SDS011;40088;51.214;6.786;2023-02-13T22:42:05;5.22;;;4.22;;
26838;SDS011;40088;51.214;6.786;2023-02-13T22:52:05;5.15;;;4.05;;
26838;SDS011;40088;51.214;6.786;2023-02-13T23:02:05;4.78;;;3.60;;
26838;SDS011;40088;51.214;6.786;2023-02-13T23:12:06;4.78;;;3.90;;
26838;SDS011;40088;51.214;6.786;2023-02-13T23:22:27;6.25;;;4.03;;
26838;SDS011;40088;51.214;6.786;2023-02-13T23:32:27;5.78;;;4.95;;
26838;SDS011;40088;51.214;6.786;2023-02-13T23:42:27;5.30;;;3.80;;
26838;SDS011;40088;51.214;6.786;2023-02-13T23:52:28;4.43;;;3.78;;
